Lawson Army Air Field (Fort Benning)
KLSF : now visible

Airfield :











YOU CAN JOIN US ON...

 
LOGIN :

Register | Disclaimer

   EN    FR    IT 

 









Legend :    VFR   Marginal VFR   IFR   Intensive IFR   Very Intensive IFR
Visi :
Ceiling :
>= 8 km
>= 3000ft
5 to 8 km
1000 to 3000 ft
1500m to 5 km
500 to 1000 ft
800 to 1500m
200 to 500 ft
< 800m
< 200 ft
Symbols :   Thunderstorms  Fog  Heavy snow  Heavy precipitations  Wind > 20 kt






- Airport Elevation : 232 ft


KLSF - Lawson Army Air Field (Fort Benning)

CURRENT METAR :
  • 280521Z AUTO 05004KT 10SM SCT011 BKN029 23/22 A2995 RMK AO2 LTG DSNT E CIG 011V029 SLP145

EXPIRED METARs :
  • 280456Z AUTO 05003KT 10SM OVC011 23/22 A2996 RMK AO2 DZE03 CIG 010 RWY33 SLP149 P0000 T02310217 402830209
  • 280413Z AUTO 05005KT 10SM FEW002 BKN012 OVC017 23/22 A2997 RMK AO2 DZE03 SLP152
  • 280403Z AUTO 12004KT 10SM FEW002 BKN009 BKN014 OVC021 23/22 A2997 RMK AO2 DZE03 CIG 007V013 SLP152
  • 280356Z AUTO 00000KT 9SM -DZ SCT002 SCT007 BKN013 OVC018 23/22 A2997 RMK AO2 RAE07DZB14E19RAB19E56DZB56 CIG 002V013 CIG 006 RWY33 SLP152 P0009 T02330221
  • 280345Z AUTO 04008KT 2 1/4SM -RA BR SCT002 BKN007 OVC019 23/22 A2997 RMK AO2 VIS 1 1/2V5 RAE07DZB14E19RAB19 CIG 007V009 CIG 004 RWY33 SLP152
  • 280335Z AUTO 28006KT 6SM +RA BR FEW003 BKN009 OVC016 23/22 A2997 RMK AO2 RAE07DZB14E19RAB19 CIG 007V009 CIG 004 RWY33 SLP152
  • 280314Z AUTO 00000KT 10SM -DZ OVC010 24/22 A2996 RMK AO2 RAE07DZB14 SLP149
  • 280301Z AUTO 00000KT 10SM -RA BKN009 OVC021 24/22 A2996 RMK AO2 CIG 009V013 SLP149
  • 280256Z AUTO 02007KT 10SM -RA BKN011 OVC022 24/22 A2996 RMK AO2 DZE00RAB00E14DZB14E17RAB47 CIG 011V022 SLP149 P0002 60002 T02400220 53020
  • 280247Z AUTO 34007KT 10SM -RA SCT013 OVC022 24/22 A2996 RMK AO2 DZE00RAB00E14DZB14E17RAB47 CIG 011 RWY33 SLP149

TAF TAF KLSF
Valid from the 28 at 01:00 until the 29 at 07:00 UTC


280100Z 2801/2907 VRB06KT 8000 BR SCT030 BKN050 QNH2988INS
BECMG 2803/2804 VRB06KT 8000 -SHRA BKN012 QNH2994INS
BECMG 2806/2807 VRB06KT 4800 BR BKN006 QNH2993INS
BECMG 2811/2812 VRB06KT 8000 BR BKN002 QNH2998INS
BECMG 2814/2815 22009KT 9000 BR SCT009 510023 QNH3002INS
BECMG 2815/2816 24009KT 9999 NSW SKC 510023 QNH3002INS
BECMG 2816/2817 24012G18KT 9999 SKC 510023 QNH2996INS
BECMG 2823/2824 VRB06KT 9999 FEW045 QNH2997INS TX31/2820Z TN19/2807Z
KZTL FIR / North America



MET'MAP, your aeronautical weather chart ! - Copyright ORBIFLY December 2007 - Disclaimer

ORBIFLY MET'MAP TEAM :

Programming & Development : Alexandra Zaïnal
Concept & original design : Baudouin d'Aumeries
Assistance for programming : Marc-Olivier Méhu
Technical & hardware support : Manuel Goepfert

Contact : metmap@orbifly.com




SOURCES & CREDITS :

   NOAA       Earth
Advisory